createdAt,value
2023-05-18T00:00:11.235Z,101107.92
2023-05-18T00:02:38.289Z,101109.25
2023-05-18T00:05:05.513Z,101109.57
2023-05-18T00:07:34.268Z,101103.39
2023-05-18T00:10:01.933Z,101106.59
2023-05-18T00:12:29.029Z,101100.23
2023-05-18T00:14:55.947Z,101101.88
2023-05-18T00:17:22.666Z,101099.95
2023-05-18T00:19:50.399Z,101098.95
2023-05-18T00:22:20.245Z,101101.13
2023-05-18T00:24:48.379Z,101100.52
2023-05-18T00:27:16.336Z,101101.69
2023-05-18T00:29:43.068Z,101102.52
2023-05-18T00:32:12.062Z,101101.02
2023-05-18T00:34:38.879Z,101100.59
2023-05-18T00:37:05.712Z,101105.30
2023-05-18T00:39:32.440Z,101099.01
2023-05-18T00:41:59.160Z,101097.48
2023-05-18T00:44:26.002Z,101095.45
2023-05-18T00:46:52.855Z,101101.14
2023-05-18T00:49:19.951Z,101098.20
2023-05-18T00:51:47.047Z,101098.20
2023-05-18T00:54:14.824Z,101099.08
2023-05-18T00:56:42.542Z,101104.48
2023-05-18T00:59:12.019Z,101104.67
2023-05-18T01:01:43.926Z,101103.66
2023-05-18T01:04:14.332Z,101105.79
2023-05-18T01:06:42.586Z,101105.35
2023-05-18T01:09:12.273Z,101107.65
2023-05-18T01:11:51.386Z,101108.59
2023-05-18T01:14:42.826Z,101107.38
2023-05-18T01:17:12.600Z,101108.45
2023-05-18T01:20:07.713Z,101108.98
2023-05-18T01:23:06.398Z,101105.84
2023-05-18T01:25:47.566Z,101106.79
2023-05-18T01:28:19.944Z,101102.67
2023-05-18T01:30:48.087Z,101099.55
2023-05-18T01:33:14.983Z,101103.52
2023-05-18T01:35:41.856Z,101102.04
2023-05-18T01:38:08.658Z,101107.45
2023-05-18T01:40:52.595Z,101108.73
2023-05-18T01:43:23.717Z,101104.31
2023-05-18T01:45:54.810Z,101102.16
2023-05-18T01:48:25.477Z,101098.66
2023-05-18T01:50:57.594Z,101098.38
2023-05-18T01:53:30.468Z,101099.63
2023-05-18T01:55:58.900Z,101100.36
2023-05-18T01:58:28.940Z,101098.95
2023-05-18T02:00:56.309Z,101100.36
2023-05-18T02:03:23.220Z,101095.88
2023-05-18T02:05:50.154Z,101096.82
2023-05-18T02:08:17.659Z,101096.88
2023-05-18T02:10:44.962Z,101094.41
2023-05-18T02:13:11.686Z,101098.23
2023-05-18T02:15:38.408Z,101094.12
2023-05-18T02:18:05.357Z,101095.36
2023-05-18T02:20:33.680Z,101095.08
2023-05-18T02:23:00.625Z,101094.98
2023-05-18T02:25:27.794Z,101094.42
2023-05-18T02:27:55.291Z,101093.56
2023-05-18T02:30:22.555Z,101093.80
2023-05-18T02:32:50.510Z,101096.66
2023-05-18T02:35:20.764Z,101091.35
2023-05-18T02:37:47.529Z,101091.13
2023-05-18T02:40:16.194Z,101091.85
2023-05-18T02:42:43.300Z,101086.89
2023-05-18T02:45:10.875Z,101088.45
2023-05-18T02:47:38.583Z,101092.61
2023-05-18T02:50:06.467Z,101093.17
2023-05-18T02:52:34.204Z,101089.45
2023-05-18T02:55:01.537Z,101085.80
2023-05-18T02:57:47.269Z,101083.95
2023-05-18T03:00:18.213Z,101087.23
2023-05-18T03:02:48.711Z,101086.87
2023-05-18T03:05:23.868Z,101084.22
2023-05-18T03:07:52.307Z,101088.63
2023-05-18T03:10:19.748Z,101089.36
2023-05-18T03:12:47.600Z,101089.46
2023-05-18T03:15:16.375Z,101088.55
2023-05-18T03:17:43.691Z,101090.19
2023-05-18T03:20:20.080Z,101094.38
2023-05-18T03:22:46.788Z,101092.52
2023-05-18T03:25:15.182Z,101091.52
2023-05-18T03:27:42.094Z,101091.73
2023-05-18T03:30:09.675Z,101092.52
2023-05-18T03:32:37.380Z,101094.48
2023-05-18T03:35:05.705Z,101094.02
2023-05-18T03:37:32.757Z,101096.32
2023-05-18T03:40:08.950Z,101105.09
2023-05-18T03:42:35.732Z,101105.98
2023-05-18T03:45:03.213Z,101108.58
2023-05-18T03:47:30.088Z,101111.83
2023-05-18T03:49:56.924Z,101113.56
2023-05-18T03:52:24.128Z,101115.94
2023-05-18T03:54:51.646Z,101112.30
2023-05-18T03:57:19.001Z,101115.09
2023-05-18T03:59:46.182Z,101117.86
2023-05-18T04:02:13.394Z,101116.96
2023-05-18T04:04:46.295Z,101117.59
2023-05-18T04:07:17.032Z,101121.81
2023-05-18T04:09:44.830Z,101119.70
2023-05-18T04:12:11.658Z,101118.63
2023-05-18T04:14:38.966Z,101119.70
2023-05-18T04:17:06.612Z,101120.39
2023-05-18T04:19:39.614Z,101123.00
2023-05-18T04:22:08.220Z,101125.96
2023-05-18T04:24:35.412Z,101127.60
2023-05-18T04:27:03.752Z,101130.45
2023-05-18T04:29:31.678Z,101131.35
2023-05-18T04:32:02.429Z,101132.98
2023-05-18T04:34:30.443Z,101135.02
2023-05-18T04:37:00.867Z,101141.83
2023-05-18T04:39:27.937Z,101145.23
2023-05-18T04:42:00.788Z,101144.77
2023-05-18T04:44:29.662Z,101149.55
2023-05-18T04:46:59.475Z,101155.55
2023-05-18T04:49:28.406Z,101158.39
2023-05-18T04:51:56.703Z,101158.46
2023-05-18T04:54:24.822Z,101165.98
2023-05-18T04:56:52.743Z,101169.94
2023-05-18T04:59:20.917Z,101167.51
2023-05-18T05:01:47.853Z,101164.23
2023-05-18T05:04:15.307Z,101165.21
2023-05-18T05:06:42.104Z,101167.20
2023-05-18T05:09:08.893Z,101173.63
2023-05-18T05:11:35.619Z,101176.52
2023-05-18T05:14:03.298Z,101178.20
2023-05-18T05:16:31.008Z,101179.46
2023-05-18T05:18:57.783Z,101176.38
2023-05-18T05:21:25.441Z,101176.91
2023-05-18T05:23:52.876Z,101174.40
2023-05-18T05:26:21.507Z,101179.84
2023-05-18T05:28:48.586Z,101182.61
2023-05-18T05:31:15.907Z,101183.60
2023-05-18T05:33:45.407Z,101188.71
2023-05-18T05:36:13.597Z,101187.98
2023-05-18T05:38:40.556Z,101194.47
2023-05-18T05:41:08.210Z,101195.40
2023-05-18T05:43:35.619Z,101197.45
2023-05-18T05:46:02.730Z,101195.09
2023-05-18T05:48:29.558Z,101192.63
2023-05-18T05:50:56.928Z,101191.30
2023-05-18T05:53:24.012Z,101188.81
2023-05-18T05:55:50.891Z,101187.62
2023-05-18T05:58:18.526Z,101188.68
2023-05-18T06:00:51.035Z,101189.86
2023-05-18T06:03:18.086Z,101187.55
2023-05-18T06:05:46.464Z,101198.30
2023-05-18T06:08:15.871Z,101200.61
2023-05-18T06:10:43.625Z,101204.50
2023-05-18T06:13:11.466Z,101210.20
2023-05-18T06:15:43.558Z,101210.90
2023-05-18T06:18:13.393Z,101214.48
2023-05-18T06:20:40.530Z,101214.07
2023-05-18T06:23:07.375Z,101215.13
2023-05-18T06:25:53.311Z,101217.32
2023-05-18T06:28:28.812Z,101219.21
2023-05-18T06:31:00.773Z,101214.98
2023-05-18T06:33:48.333Z,101216.19
2023-05-18T06:36:16.434Z,101210.01
2023-05-18T06:38:43.724Z,101211.95
2023-05-18T06:41:10.525Z,101207.84
2023-05-18T06:43:37.474Z,101210.51
2023-05-18T06:46:26.819Z,101209.36
2023-05-18T06:49:00.341Z,101210.56
2023-05-18T06:51:27.598Z,101204.02
2023-05-18T06:53:56.017Z,101206.80
2023-05-18T06:56:23.300Z,101208.57
2023-05-18T06:58:51.502Z,101211.09
2023-05-18T07:01:19.498Z,101204.05
2023-05-18T07:03:46.489Z,101203.98
2023-05-18T07:06:13.470Z,101204.91
2023-05-18T07:08:40.767Z,101205.81
2023-05-18T07:11:07.693Z,101203.75
2023-05-18T07:13:34.424Z,101204.05
2023-05-18T07:16:01.351Z,101198.27
2023-05-18T07:18:28.224Z,101202.98
2023-05-18T07:20:54.924Z,101198.92
2023-05-18T07:23:22.595Z,101200.93
2023-05-18T07:25:49.453Z,101201.23
2023-05-18T07:28:22.346Z,101204.70
2023-05-18T07:30:49.073Z,101202.62
2023-05-18T07:33:15.775Z,101202.04
2023-05-18T07:35:42.463Z,101200.99
2023-05-18T07:38:09.242Z,101192.42
2023-05-18T07:40:36.337Z,101192.25
2023-05-18T07:43:03.076Z,101192.27
2023-05-18T07:45:30.195Z,101191.91
2023-05-18T07:47:57.843Z,101190.52
2023-05-18T07:50:24.747Z,101190.16
2023-05-18T07:52:51.482Z,101194.80
2023-05-18T07:55:18.897Z,101197.05
2023-05-18T07:57:45.905Z,101198.38
2023-05-18T08:00:13.361Z,101195.03
2023-05-18T08:02:40.392Z,101191.96
2023-05-18T08:05:08.664Z,101186.71
2023-05-18T08:07:35.393Z,101186.34
2023-05-18T08:10:02.459Z,101184.61
2023-05-18T08:12:30.111Z,101181.95
2023-05-18T08:14:57.401Z,101185.63
2023-05-18T08:17:24.242Z,101180.54
2023-05-18T08:19:53.955Z,101177.54
2023-05-18T08:22:21.370Z,101176.45
2023-05-18T08:24:48.439Z,101176.92
2023-05-18T08:27:15.290Z,101177.88
2023-05-18T08:29:42.045Z,101171.52
2023-05-18T08:32:08.987Z,101176.64
2023-05-18T08:34:36.161Z,101175.42
2023-05-18T08:37:03.140Z,101177.33
2023-05-18T08:39:32.056Z,101173.88
2023-05-18T08:42:29.701Z,101175.48
2023-05-18T08:45:14.210Z,101174.65
2023-05-18T08:47:41.448Z,101170.88
2023-05-18T08:50:13.678Z,101172.06
2023-05-18T08:52:48.496Z,101167.30
2023-05-18T08:55:17.964Z,101163.13
2023-05-18T08:57:50.259Z,101163.79
2023-05-18T09:00:17.444Z,101161.63
2023-05-18T09:02:44.969Z,101161.96
2023-05-18T09:05:13.577Z,101157.83
2023-05-18T09:07:42.463Z,101156.73
2023-05-18T09:10:13.801Z,101155.14
2023-05-18T09:12:42.789Z,101157.17
2023-05-18T09:15:18.716Z,101156.52
2023-05-18T09:17:45.552Z,101159.89
2023-05-18T09:20:13.066Z,101157.70
2023-05-18T09:22:42.904Z,101161.24
2023-05-18T09:25:13.483Z,101158.21
2023-05-18T09:27:40.558Z,101159.54
2023-05-18T09:30:11.452Z,101167.61
2023-05-18T09:32:38.423Z,101160.90
2023-05-18T09:35:07.107Z,101162.73
2023-05-18T09:37:34.960Z,101160.40
2023-05-18T09:40:06.832Z,101158.35
2023-05-18T09:42:42.745Z,101158.23
2023-05-18T09:45:17.549Z,101161.30
2023-05-18T09:47:44.920Z,101164.60
2023-05-18T09:50:12.030Z,101162.31
2023-05-18T09:52:42.491Z,101165.99
2023-05-18T09:55:10.774Z,101169.52
2023-05-18T09:57:51.686Z,101167.55
2023-05-18T10:00:22.256Z,101175.13
2023-05-18T10:02:52.984Z,101176.36
2023-05-18T10:05:36.867Z,101176.38
2023-05-18T10:08:03.881Z,101182.23
2023-05-18T10:10:30.797Z,101176.40
2023-05-18T10:12:58.638Z,101178.06
2023-05-18T10:15:25.664Z,101178.98
2023-05-18T10:17:56.609Z,101181.35
2023-05-18T10:20:26.743Z,101185.38
2023-05-18T10:22:55.885Z,101187.48
2023-05-18T10:25:26.545Z,101181.37
2023-05-18T10:28:00.700Z,101183.64
2023-05-18T10:30:27.859Z,101183.52
2023-05-18T10:32:57.129Z,101182.04
2023-05-18T10:35:28.437Z,101183.62
2023-05-18T10:37:57.739Z,101179.98
2023-05-18T10:40:24.923Z,101176.33
2023-05-18T10:42:52.310Z,101173.15
2023-05-18T10:45:19.614Z,101166.83
2023-05-18T10:47:48.259Z,101163.23
2023-05-18T10:50:15.210Z,101160.84
2023-05-18T10:52:43.052Z,101155.91
2023-05-18T10:55:09.749Z,101153.05
2023-05-18T10:57:59.985Z,101149.77
2023-05-18T11:00:26.904Z,101144.03
2023-05-18T11:02:55.170Z,101143.34
2023-05-18T11:05:26.736Z,101140.61
2023-05-18T11:08:05.111Z,101142.90
2023-05-18T11:10:43.749Z,101148.02
2023-05-18T11:13:14.307Z,101151.55
2023-05-18T11:15:53.278Z,101154.24
2023-05-18T11:18:20.245Z,101148.76
2023-05-18T11:20:48.844Z,101155.17
2023-05-18T11:23:18.594Z,101156.34
2023-05-18T11:25:45.850Z,101157.36
2023-05-18T11:28:13.711Z,101160.49
2023-05-18T11:30:40.585Z,101160.34
2023-05-18T11:33:14.728Z,101160.10
2023-05-18T11:36:02.577Z,101158.77
2023-05-18T11:39:03.696Z,101155.34
2023-05-18T11:41:47.085Z,101152.23
2023-05-18T11:44:17.121Z,101150.02
2023-05-18T11:46:54.700Z,101147.11
2023-05-18T11:49:25.223Z,101146.16
2023-05-18T11:52:02.897Z,101152.11
2023-05-18T11:54:38.800Z,101146.23
2023-05-18T11:57:06.715Z,101143.08
2023-05-18T11:59:54.030Z,101149.48
2023-05-18T12:02:25.184Z,101150.83
2023-05-18T12:04:54.570Z,101145.76
2023-05-18T12:07:22.683Z,101138.55
2023-05-18T12:09:49.650Z,101142.84
2023-05-18T12:12:20.434Z,101145.73
2023-05-18T12:15:01.980Z,101144.83
2023-05-18T12:17:45.837Z,101146.45
2023-05-18T12:20:15.019Z,101146.80
2023-05-18T12:22:44.057Z,101145.96
2023-05-18T12:25:11.721Z,101143.52
2023-05-18T12:27:43.968Z,101138.81
2023-05-18T12:30:12.636Z,101146.61
2023-05-18T12:32:44.265Z,101147.34
2023-05-18T12:35:11.125Z,101145.35
2023-05-18T12:37:47.170Z,101144.98
2023-05-18T12:40:15.617Z,101142.67
2023-05-18T12:42:57.051Z,101137.92
2023-05-18T12:45:26.787Z,101134.30
2023-05-18T12:47:55.558Z,101137.56
2023-05-18T12:50:26.659Z,101135.99
2023-05-18T12:52:55.247Z,101134.30
2023-05-18T12:55:22.935Z,101133.89
2023-05-18T12:58:04.434Z,101137.62
2023-05-18T13:00:35.295Z,101132.91
2023-05-18T13:03:15.989Z,101135.55
2023-05-18T13:05:45.856Z,101133.60
2023-05-18T13:08:19.365Z,101130.44
2023-05-18T13:10:48.049Z,101128.67
2023-05-18T13:13:20.052Z,101124.52
2023-05-18T13:15:46.880Z,101121.78
2023-05-18T13:18:13.655Z,101118.98
2023-05-18T13:20:51.510Z,101122.40
2023-05-18T13:23:21.543Z,101121.23
2023-05-18T13:25:49.429Z,101121.05
2023-05-18T13:28:18.060Z,101110.45
2023-05-18T13:30:45.981Z,101112.14
2023-05-18T13:33:13.196Z,101110.04
2023-05-18T13:35:44.244Z,101111.83
2023-05-18T13:38:13.465Z,101104.98
2023-05-18T13:40:41.279Z,101098.02
2023-05-18T13:43:10.915Z,101092.31
2023-05-18T13:45:39.629Z,101087.47
2023-05-18T13:48:09.575Z,101087.91
2023-05-18T13:50:37.322Z,101090.02
2023-05-18T13:53:04.433Z,101086.55
2023-05-18T13:55:31.288Z,101077.51
2023-05-18T13:57:58.566Z,101076.42
2023-05-18T14:00:25.507Z,101071.44
2023-05-18T14:02:53.454Z,101070.42
2023-05-18T14:05:20.940Z,101070.55
2023-05-18T14:07:47.777Z,101070.58
2023-05-18T14:10:14.585Z,101067.83
2023-05-18T14:12:44.661Z,101063.12
2023-05-18T14:15:13.952Z,101063.89
2023-05-18T14:17:44.486Z,101057.58
2023-05-18T14:20:12.451Z,101060.98
2023-05-18T14:22:39.902Z,101055.58
2023-05-18T14:25:06.864Z,101057.82
2023-05-18T14:27:33.883Z,101055.24
2023-05-18T14:30:01.502Z,101054.20
2023-05-18T14:32:28.475Z,101050.17
2023-05-18T14:34:58.038Z,101045.66
2023-05-18T14:37:25.347Z,101046.55
2023-05-18T14:39:52.039Z,101045.69
2023-05-18T14:42:18.812Z,101049.60
2023-05-18T14:44:45.595Z,101054.30
2023-05-18T14:47:12.611Z,101053.81
2023-05-18T14:49:39.480Z,101049.10
2023-05-18T14:52:06.443Z,101046.14
2023-05-18T14:54:33.279Z,101046.64
2023-05-18T14:57:01.458Z,101044.73
2023-05-18T14:59:28.211Z,101042.63
2023-05-18T15:01:55.050Z,101041.91
2023-05-18T15:04:22.312Z,101044.79
2023-05-18T15:06:49.971Z,101047.98
2023-05-18T15:09:17.503Z,101049.15
2023-05-18T15:11:44.445Z,101047.30
2023-05-18T15:14:11.174Z,101047.73
2023-05-18T15:16:39.028Z,101049.95
2023-05-18T15:19:06.148Z,101049.21
2023-05-18T15:21:33.199Z,101054.07
2023-05-18T15:24:00.037Z,101052.60
2023-05-18T15:26:27.661Z,101050.45
2023-05-18T15:28:54.598Z,101050.73
2023-05-18T15:31:21.446Z,101054.70
2023-05-18T15:33:48.341Z,101057.20
2023-05-18T15:36:15.094Z,101059.90
2023-05-18T15:38:41.913Z,101063.35
2023-05-18T15:41:08.864Z,101059.05
2023-05-18T15:43:36.884Z,101053.92
2023-05-18T15:46:04.443Z,101051.54
2023-05-18T15:48:31.258Z,101048.69
2023-05-18T15:50:58.054Z,101053.98
2023-05-18T15:53:24.940Z,101053.98
2023-05-18T15:55:57.469Z,101055.37
2023-05-18T15:58:25.641Z,101057.48
2023-05-18T16:00:52.482Z,101058.27
2023-05-18T16:03:19.474Z,101055.86
2023-05-18T16:05:46.497Z,101058.15
2023-05-18T16:08:13.363Z,101051.86
2023-05-18T16:10:40.561Z,101054.55
2023-05-18T16:13:09.589Z,101053.76
2023-05-18T16:15:36.437Z,101052.26
2023-05-18T16:18:03.876Z,101051.33
2023-05-18T16:20:31.292Z,101048.53
2023-05-18T16:22:58.739Z,101050.85
2023-05-18T16:25:26.615Z,101052.30
2023-05-18T16:27:53.530Z,101052.94
2023-05-18T16:30:20.616Z,101051.58
2023-05-18T16:32:47.566Z,101061.16
2023-05-18T16:35:14.375Z,101060.33
2023-05-18T16:37:41.147Z,101062.30
2023-05-18T16:40:08.553Z,101060.40
2023-05-18T16:42:35.594Z,101065.06
2023-05-18T16:45:02.648Z,101069.23
2023-05-18T16:47:32.547Z,101073.35
2023-05-18T16:50:00.200Z,101072.48
2023-05-18T16:52:27.252Z,101075.67
2023-05-18T16:54:54.034Z,101075.91
2023-05-18T16:57:21.215Z,101078.14
2023-05-18T16:59:48.190Z,101082.02
2023-05-18T17:02:15.828Z,101084.95
2023-05-18T17:04:44.592Z,101086.65
2023-05-18T17:07:12.588Z,101090.72
2023-05-18T17:09:41.846Z,101087.13
2023-05-18T17:12:12.421Z,101084.08
2023-05-18T17:14:39.862Z,101084.83
2023-05-18T17:17:07.973Z,101084.70
2023-05-18T17:19:35.262Z,101090.07
2023-05-18T17:22:06.394Z,101091.58
2023-05-18T17:24:33.170Z,101094.94
2023-05-18T17:27:00.002Z,101093.77
2023-05-18T17:29:27.330Z,101093.73
2023-05-18T17:31:54.165Z,101090.77
2023-05-18T17:34:21.568Z,101095.72
2023-05-18T17:36:49.144Z,101096.61
2023-05-18T17:39:16.775Z,101092.48
2023-05-18T17:41:45.037Z,101095.80
2023-05-18T17:44:16.548Z,101099.38
2023-05-18T17:46:47.407Z,101099.46
2023-05-18T17:49:14.766Z,101104.30
2023-05-18T17:51:42.338Z,101104.67
2023-05-18T17:54:09.455Z,101106.48
2023-05-18T17:56:37.038Z,101104.14
2023-05-18T17:59:05.621Z,101106.00
2023-05-18T18:01:33.506Z,101106.02
2023-05-18T18:04:01.010Z,101107.46
2023-05-18T18:06:28.165Z,101106.57
2023-05-18T18:08:58.997Z,101104.70
2023-05-18T18:11:26.636Z,101106.63
2023-05-18T18:13:54.450Z,101110.48
2023-05-18T18:16:21.572Z,101109.77
2023-05-18T18:18:49.226Z,101115.70
2023-05-18T18:21:16.152Z,101116.00
2023-05-18T18:23:43.031Z,101113.44
2023-05-18T18:26:10.036Z,101116.96
2023-05-18T18:28:37.932Z,101123.18
2023-05-18T18:31:05.001Z,101124.52
2023-05-18T18:33:32.969Z,101124.16
2023-05-18T18:36:00.159Z,101124.02
2023-05-18T18:38:29.759Z,101125.84
2023-05-18T18:41:01.430Z,101126.02
2023-05-18T18:43:28.740Z,101127.23
2023-05-18T18:45:58.468Z,101131.36
2023-05-18T18:48:25.598Z,101135.50
2023-05-18T18:50:53.270Z,101137.50
2023-05-18T18:53:20.126Z,101140.67
2023-05-18T18:55:47.063Z,101143.44
2023-05-18T18:58:14.124Z,101144.84
2023-05-18T19:00:40.993Z,101148.14
2023-05-18T19:03:10.128Z,101150.84
2023-05-18T19:05:37.608Z,101149.14
2023-05-18T19:08:04.533Z,101155.69
2023-05-18T19:10:33.149Z,101160.92
2023-05-18T19:13:05.113Z,101160.55
2023-05-18T19:15:34.014Z,101166.91
2023-05-18T19:18:01.354Z,101168.68
2023-05-18T19:20:28.479Z,101168.52
2023-05-18T19:22:55.447Z,101168.84
2023-05-18T19:25:24.864Z,101170.90
2023-05-18T19:27:53.530Z,101177.38
2023-05-18T19:30:22.142Z,101183.85
2023-05-18T19:32:51.188Z,101189.36
2023-05-18T19:35:23.714Z,101190.05
2023-05-18T19:37:51.628Z,101192.52
2023-05-18T19:40:18.689Z,101197.70
2023-05-18T19:42:45.478Z,101201.13
2023-05-18T19:45:12.275Z,101201.91
2023-05-18T19:47:39.080Z,101202.54
2023-05-18T19:50:07.318Z,101204.21
2023-05-18T19:52:34.377Z,101209.27
2023-05-18T19:55:02.261Z,101209.73
2023-05-18T19:57:29.534Z,101212.09
2023-05-18T19:59:56.244Z,101211.42
2023-05-18T20:02:23.158Z,101214.77
2023-05-18T20:04:51.179Z,101216.08
2023-05-18T20:07:18.230Z,101218.19
2023-05-18T20:09:45.125Z,101219.54
2023-05-18T20:12:12.108Z,101214.69
2023-05-18T20:14:39.245Z,101219.58
2023-05-18T20:17:06.988Z,101221.77
2023-05-18T20:19:33.890Z,101224.86
2023-05-18T20:22:00.752Z,101225.70
2023-05-18T20:24:27.694Z,101229.58
2023-05-18T20:26:54.396Z,101227.20
2023-05-18T20:29:21.394Z,101229.36
2023-05-18T20:31:48.486Z,101231.42
2023-05-18T20:34:15.632Z,101230.42
2023-05-18T20:36:42.390Z,101231.52
2023-05-18T20:39:09.259Z,101234.61
2023-05-18T20:41:40.411Z,101235.50
2023-05-18T20:44:07.508Z,101236.66
2023-05-18T20:46:34.530Z,101235.27
2023-05-18T20:49:01.372Z,101236.20
2023-05-18T20:51:28.248Z,101236.09
2023-05-18T20:53:55.117Z,101234.08
2023-05-18T20:56:23.029Z,101231.17
2023-05-18T20:58:50.367Z,101231.13
2023-05-18T21:01:18.672Z,101228.00
2023-05-18T21:03:46.067Z,101231.94
2023-05-18T21:06:14.138Z,101231.09
2023-05-18T21:08:41.364Z,101231.45
2023-05-18T21:11:08.165Z,101234.23
2023-05-18T21:13:36.998Z,101234.48
2023-05-18T21:16:06.697Z,101236.20
2023-05-18T21:18:34.662Z,101239.25
2023-05-18T21:21:02.401Z,101244.34
2023-05-18T21:23:29.323Z,101245.55
2023-05-18T21:25:56.901Z,101244.30
2023-05-18T21:28:25.257Z,101245.03
2023-05-18T21:30:52.750Z,101250.25
2023-05-18T21:33:19.954Z,101251.63
2023-05-18T21:35:47.002Z,101251.59
2023-05-18T21:38:13.920Z,101252.38
2023-05-18T21:40:43.779Z,101252.66
2023-05-18T21:43:10.923Z,101253.27
2023-05-18T21:45:38.099Z,101253.37
2023-05-18T21:48:05.338Z,101254.64
2023-05-18T21:50:34.807Z,101259.91
2023-05-18T21:53:05.634Z,101257.46
2023-05-18T21:55:33.013Z,101252.84
2023-05-18T21:58:00.050Z,101251.73
2023-05-18T22:00:27.295Z,101249.58
2023-05-18T22:02:54.407Z,101248.23
2023-05-18T22:05:21.828Z,101245.23
2023-05-18T22:07:48.915Z,101248.73
2023-05-18T22:10:15.970Z,101247.90
2023-05-18T22:12:43.660Z,101246.49
2023-05-18T22:15:11.019Z,101248.25
2023-05-18T22:17:39.232Z,101247.12
2023-05-18T22:20:09.533Z,101242.27
2023-05-18T22:22:36.459Z,101248.17
2023-05-18T22:25:03.248Z,101242.05
2023-05-18T22:27:30.254Z,101240.20
2023-05-18T22:29:57.501Z,101243.52
2023-05-18T22:32:24.623Z,101244.77
2023-05-18T22:34:52.088Z,101241.58
2023-05-18T22:37:18.816Z,101245.66
2023-05-18T22:39:45.798Z,101246.82
2023-05-18T22:42:12.564Z,101251.20
2023-05-18T22:44:39.399Z,101249.36
2023-05-18T22:47:06.487Z,101248.30
2023-05-18T22:49:36.028Z,101246.90
2023-05-18T22:52:06.825Z,101245.06
2023-05-18T22:54:34.153Z,101244.31
2023-05-18T22:57:01.537Z,101247.96
2023-05-18T22:59:28.958Z,101248.23
2023-05-18T23:01:55.797Z,101249.15
2023-05-18T23:04:22.540Z,101253.79
2023-05-18T23:06:50.960Z,101247.14
2023-05-18T23:09:18.566Z,101247.92
2023-05-18T23:11:46.267Z,101246.27
2023-05-18T23:14:13.100Z,101246.36
2023-05-18T23:16:43.331Z,101244.55
2023-05-18T23:19:12.563Z,101244.94
2023-05-18T23:21:40.706Z,101246.81
2023-05-18T23:24:12.315Z,101240.87
2023-05-18T23:26:43.058Z,101239.46
2023-05-18T23:29:10.733Z,101241.01
2023-05-18T23:31:37.938Z,101245.87
2023-05-18T23:34:05.258Z,101247.34
2023-05-18T23:36:35.174Z,101243.40
2023-05-18T23:39:02.762Z,101241.50
2023-05-18T23:41:31.561Z,101241.29
2023-05-18T23:43:58.674Z,101238.81
2023-05-18T23:46:26.198Z,101236.41
2023-05-18T23:48:53.601Z,101235.52
2023-05-18T23:51:21.654Z,101233.95
2023-05-18T23:53:51.063Z,101236.50
2023-05-18T23:56:18.873Z,101235.76
2023-05-18T23:58:46.874Z,101234.40
